createdAt,value
2018-10-18T00:01:50.861Z,9.07
2018-10-18T00:04:19.156Z,9.11
2018-10-18T00:06:47.468Z,9.02
2018-10-18T00:09:15.788Z,8.78
2018-10-18T00:11:44.155Z,8.66
2018-10-18T00:14:12.601Z,8.53
2018-10-18T00:16:40.858Z,8.58
2018-10-18T00:19:09.343Z,8.65
2018-10-18T00:21:37.666Z,8.86
2018-10-18T00:24:06.070Z,8.89
2018-10-18T00:26:34.374Z,8.90
2018-10-18T00:29:02.737Z,8.84
2018-10-18T00:31:31.061Z,8.74
2018-10-18T00:33:59.406Z,8.41
2018-10-18T00:36:27.744Z,8.34
2018-10-18T00:38:56.098Z,8.49
2018-10-18T00:41:24.636Z,8.69
2018-10-18T00:43:52.955Z,8.84
2018-10-18T00:46:21.303Z,8.93
2018-10-18T00:48:49.640Z,8.92
2018-10-18T00:51:17.999Z,8.79
2018-10-18T00:53:46.299Z,8.67
2018-10-18T00:56:14.718Z,8.77
2018-10-18T00:58:43.045Z,8.57
2018-10-18T01:01:11.371Z,8.41
2018-10-18T01:03:39.786Z,8.45
2018-10-18T01:06:08.116Z,8.45
2018-10-18T01:08:36.490Z,8.64
2018-10-18T01:11:04.875Z,8.76
2018-10-18T01:13:33.227Z,8.59
2018-10-18T01:16:01.544Z,8.55
2018-10-18T01:18:29.931Z,8.58
2018-10-18T01:20:58.281Z,8.49
2018-10-18T01:23:26.594Z,8.60
2018-10-18T01:25:54.979Z,8.69
2018-10-18T01:28:23.296Z,8.65
2018-10-18T01:30:51.664Z,8.38
2018-10-18T01:33:20.008Z,8.43
2018-10-18T01:35:48.369Z,8.31
2018-10-18T01:38:16.794Z,8.42
2018-10-18T01:40:45.131Z,8.27
2018-10-18T01:43:13.449Z,8.46
2018-10-18T01:45:41.812Z,8.46
2018-10-18T01:48:10.490Z,8.29
2018-10-18T01:50:38.712Z,8.42
2018-10-18T01:53:07.608Z,8.26
2018-10-18T01:55:35.953Z,8.39
2018-10-18T01:58:04.356Z,8.48
2018-10-18T02:00:32.673Z,8.27
2018-10-18T02:03:01.128Z,8.17
2018-10-18T02:05:29.445Z,8.05
2018-10-18T02:07:57.780Z,7.97
2018-10-18T02:10:26.072Z,8.01
2018-10-18T02:12:54.390Z,8.01
2018-10-18T02:15:22.699Z,8.02
2018-10-18T02:17:51.050Z,8.05
2018-10-18T02:20:19.367Z,8.11
2018-10-18T02:22:47.756Z,8.17
2018-10-18T02:25:16.232Z,7.95
2018-10-18T02:27:44.617Z,7.99
2018-10-18T02:30:13.045Z,8.17
2018-10-18T02:32:41.341Z,8.11
2018-10-18T02:35:09.703Z,8.12
2018-10-18T02:37:37.988Z,7.93
2018-10-18T02:40:06.412Z,7.84
2018-10-18T02:42:34.704Z,7.92
2018-10-18T02:45:03.140Z,7.95
2018-10-18T02:47:31.567Z,7.95
2018-10-18T02:49:59.902Z,7.83
2018-10-18T02:52:28.300Z,7.80
2018-10-18T02:54:56.612Z,7.68
2018-10-18T02:57:24.914Z,7.88
2018-10-18T02:59:53.351Z,7.72
2018-10-18T03:02:21.677Z,7.83
2018-10-18T03:04:50.040Z,7.80
2018-10-18T03:07:18.336Z,7.96
2018-10-18T03:09:46.707Z,7.87
2018-10-18T03:12:15.048Z,7.88
2018-10-18T03:14:43.555Z,7.97
2018-10-18T03:17:11.868Z,7.57
2018-10-18T03:19:40.245Z,7.80
2018-10-18T03:22:08.541Z,7.80
2018-10-18T03:24:36.896Z,7.84
2018-10-18T03:27:05.831Z,7.89
2018-10-18T03:29:34.155Z,7.71
2018-10-18T03:32:02.489Z,7.83
2018-10-18T03:34:30.810Z,7.76
2018-10-18T03:36:59.127Z,7.74
2018-10-18T03:39:27.479Z,7.98
2018-10-18T03:41:55.767Z,8.22
2018-10-18T03:44:24.183Z,8.01
2018-10-18T03:46:52.541Z,7.91
2018-10-18T03:49:20.943Z,8.32
2018-10-18T03:51:49.352Z,8.23
2018-10-18T03:54:17.729Z,8.22
2018-10-18T03:56:46.231Z,8.54
2018-10-18T03:59:14.568Z,8.69
2018-10-18T04:01:42.898Z,9.28
2018-10-18T04:04:11.227Z,9.63
2018-10-18T04:06:39.536Z,9.65
2018-10-18T04:09:09.157Z,10.08
2018-10-18T04:11:37.522Z,10.72
2018-10-18T04:14:06.103Z,11.37
2018-10-18T04:16:34.563Z,11.07
2018-10-18T04:19:02.944Z,11.05
2018-10-18T04:21:31.283Z,11.53
2018-10-18T04:23:59.770Z,11.48
2018-10-18T04:26:28.212Z,11.61
2018-10-18T04:28:56.679Z,11.22
2018-10-18T04:31:25.039Z,11.25
2018-10-18T04:33:53.358Z,11.15
2018-10-18T04:36:21.722Z,11.07
2018-10-18T04:38:50.041Z,11.27
2018-10-18T04:41:18.480Z,11.22
2018-10-18T04:43:46.820Z,11.11
2018-10-18T04:46:15.170Z,11.64
2018-10-18T04:48:43.502Z,11.52
2018-10-18T04:51:11.876Z,11.26
2018-10-18T04:53:40.193Z,11.27
2018-10-18T04:56:08.579Z,11.24
2018-10-18T04:58:36.912Z,11.36
2018-10-18T05:01:05.566Z,11.26
2018-10-18T05:03:33.818Z,11.59
2018-10-18T05:06:03.859Z,11.68
2018-10-18T05:08:32.282Z,11.68
2018-10-18T05:11:00.651Z,11.84
2018-10-18T05:13:29.047Z,11.68
2018-10-18T05:15:57.457Z,11.80
2018-10-18T05:18:25.832Z,11.77
2018-10-18T05:20:54.242Z,11.79
2018-10-18T05:23:22.620Z,11.70
2018-10-18T05:25:51.477Z,11.73
2018-10-18T05:28:20.187Z,11.66
2018-10-18T05:30:48.743Z,11.56
2018-10-18T05:33:17.075Z,11.44
2018-10-18T05:35:45.368Z,11.56
2018-10-18T05:38:13.936Z,11.50
2018-10-18T05:40:42.282Z,11.60
2018-10-18T05:43:10.710Z,11.50
2018-10-18T05:45:39.001Z,11.39
2018-10-18T05:48:07.431Z,11.49
2018-10-18T05:50:35.769Z,11.84
2018-10-18T05:53:04.203Z,11.74
2018-10-18T05:55:32.534Z,11.67
2018-10-18T05:58:00.887Z,11.68
2018-10-18T06:00:29.195Z,11.69
2018-10-18T06:02:57.524Z,11.67
2018-10-18T06:05:25.874Z,11.52
2018-10-18T06:07:54.239Z,11.43
2018-10-18T06:10:34.137Z,11.45
2018-10-18T06:13:02.881Z,11.41
2018-10-18T06:15:32.026Z,11.35
2018-10-18T06:18:00.400Z,11.35
2018-10-18T06:20:28.912Z,11.34
2018-10-18T06:22:57.372Z,11.38
2018-10-18T06:25:25.598Z,11.43
2018-10-18T06:27:53.948Z,11.46
2018-10-18T06:30:22.265Z,11.36
2018-10-18T06:32:50.592Z,11.35
2018-10-18T06:35:18.943Z,11.31
2018-10-18T06:37:47.269Z,11.46
2018-10-18T06:40:17.045Z,11.42
2018-10-18T06:42:45.377Z,11.36
2018-10-18T06:45:16.044Z,11.40
2018-10-18T06:47:44.845Z,11.38
2018-10-18T06:50:18.472Z,11.42
2018-10-18T06:52:46.808Z,11.50
2018-10-18T06:55:15.272Z,11.78
2018-10-18T06:57:44.171Z,11.65
2018-10-18T07:00:14.702Z,11.71
2018-10-18T07:02:43.606Z,11.76
2018-10-18T07:05:13.099Z,11.75
2018-10-18T07:07:41.975Z,11.72
2018-10-18T07:10:15.429Z,11.81
2018-10-18T07:12:43.811Z,11.79
2018-10-18T07:15:13.167Z,11.86
2018-10-18T07:17:42.399Z,11.88
2018-10-18T07:20:11.131Z,11.90
2018-10-18T07:22:39.940Z,11.93
2018-10-18T07:25:10.621Z,12.02
2018-10-18T07:27:39.411Z,12.04
2018-10-18T07:30:08.772Z,12.08
2018-10-18T07:32:37.138Z,12.11
2018-10-18T07:35:06.366Z,12.25
2018-10-18T07:37:34.732Z,12.26
2018-10-18T07:40:03.196Z,12.24
2018-10-18T07:42:31.516Z,12.40
2018-10-18T07:44:59.906Z,12.37
2018-10-18T07:47:28.232Z,12.31
2018-10-18T07:49:56.577Z,12.44
2018-10-18T07:52:24.892Z,12.46
2018-10-18T07:54:53.281Z,12.55
2018-10-18T07:57:21.654Z,12.55
2018-10-18T07:59:50.048Z,12.70
2018-10-18T08:02:18.535Z,12.60
2018-10-18T08:04:46.900Z,12.62
2018-10-18T08:07:15.321Z,12.83
2018-10-18T08:09:43.650Z,12.70
2018-10-18T08:12:12.013Z,12.80
2018-10-18T08:14:40.452Z,12.92
2018-10-18T08:17:08.858Z,13.00
2018-10-18T08:19:37.229Z,13.00
2018-10-18T08:22:05.749Z,13.20
2018-10-18T08:24:34.168Z,13.15
2018-10-18T08:27:02.608Z,13.30
2018-10-18T08:29:30.985Z,13.48
2018-10-18T08:31:59.608Z,13.39
2018-10-18T08:34:27.935Z,13.52
2018-10-18T08:36:56.284Z,13.73
2018-10-18T08:39:24.637Z,13.85
2018-10-18T08:41:52.959Z,13.81
2018-10-18T08:44:21.350Z,13.74
2018-10-18T08:46:49.668Z,13.65
2018-10-18T08:49:18.122Z,13.83
2018-10-18T08:51:46.506Z,13.73
2018-10-18T08:54:14.832Z,13.57
2018-10-18T08:56:43.164Z,13.36
2018-10-18T08:59:11.512Z,13.48
2018-10-18T09:01:39.901Z,13.33
2018-10-18T09:04:08.316Z,13.41
2018-10-18T09:06:37.046Z,13.48
2018-10-18T09:09:07.619Z,13.58
2018-10-18T09:11:36.055Z,13.33
2018-10-18T09:14:04.406Z,13.40
2018-10-18T09:16:32.845Z,13.50
2018-10-18T09:19:01.206Z,13.41
2018-10-18T09:21:29.539Z,13.30
2018-10-18T09:23:57.993Z,13.37
2018-10-18T09:26:26.325Z,13.24
2018-10-18T09:28:54.685Z,13.13
2018-10-18T09:31:23.077Z,13.24
2018-10-18T09:33:51.458Z,13.23
2018-10-18T09:36:19.826Z,12.90
2018-10-18T09:38:48.423Z,12.74
2018-10-18T09:41:16.791Z,12.95
2018-10-18T09:43:45.169Z,12.88
2018-10-18T09:46:13.530Z,12.68
2018-10-18T09:48:42.026Z,12.77
2018-10-18T09:51:10.360Z,12.76
2018-10-18T09:53:38.760Z,12.74
2018-10-18T09:56:07.239Z,12.69
2018-10-18T09:58:35.814Z,12.77
2018-10-18T10:01:09.736Z,12.54
2018-10-18T10:03:38.112Z,12.64
2018-10-18T10:06:06.925Z,12.66
2018-10-18T10:08:35.434Z,12.76
2018-10-18T10:11:03.820Z,12.80
2018-10-18T10:13:32.430Z,12.86
2018-10-18T10:16:00.867Z,12.79
2018-10-18T10:18:29.265Z,12.81
2018-10-18T10:20:57.638Z,12.93
2018-10-18T10:23:26.224Z,13.01
2018-10-18T10:25:54.594Z,12.86
2018-10-18T10:28:22.975Z,12.89
2018-10-18T10:30:51.343Z,12.88
2018-10-18T10:33:19.892Z,12.92
2018-10-18T10:35:48.175Z,12.94
2018-10-18T10:38:16.553Z,12.86
2018-10-18T10:40:45.003Z,12.96
2018-10-18T10:43:13.351Z,13.04
2018-10-18T10:45:41.782Z,13.21
2018-10-18T10:48:10.159Z,13.13
2018-10-18T10:50:38.463Z,13.18
2018-10-18T10:53:06.844Z,13.40
2018-10-18T10:55:35.176Z,13.45
2018-10-18T10:58:03.581Z,13.66
2018-10-18T11:01:17.238Z,13.48
2018-10-18T11:03:45.938Z,13.58
2018-10-18T11:06:14.590Z,13.72
2018-10-18T11:08:42.960Z,13.72
2018-10-18T11:11:11.988Z,14.01
2018-10-18T11:13:40.445Z,14.09
2018-10-18T11:16:09.016Z,14.05
2018-10-18T11:18:38.382Z,13.94
2018-10-18T11:21:07.994Z,13.98
2018-10-18T11:23:36.638Z,13.98
2018-10-18T11:26:05.219Z,13.85
2018-10-18T11:28:33.805Z,13.82
2018-10-18T11:31:02.281Z,14.12
2018-10-18T11:33:30.703Z,14.13
2018-10-18T11:35:59.075Z,14.35
2018-10-18T11:38:32.402Z,14.43
2018-10-18T11:41:00.859Z,14.27
2018-10-18T11:43:29.293Z,14.54
2018-10-18T11:45:57.627Z,14.56
2018-10-18T11:48:26.014Z,14.69
2018-10-18T11:50:54.403Z,14.96
2018-10-18T11:53:22.834Z,15.12
2018-10-18T11:55:51.119Z,14.69
2018-10-18T11:58:19.430Z,14.88
2018-10-18T12:00:47.941Z,15.05
2018-10-18T12:03:16.263Z,15.11
2018-10-18T12:05:44.689Z,14.93
2018-10-18T12:08:13.293Z,15.15
2018-10-18T12:10:41.491Z,14.99
2018-10-18T12:13:09.986Z,14.86
2018-10-18T12:15:38.406Z,14.52
2018-10-18T12:18:06.756Z,14.69
2018-10-18T12:20:35.312Z,14.72
2018-10-18T12:23:03.701Z,14.89
2018-10-18T12:25:32.044Z,14.63
2018-10-18T12:28:00.424Z,14.72
2018-10-18T12:30:29.823Z,14.56
2018-10-18T12:32:58.171Z,14.68
2018-10-18T12:35:26.517Z,14.69
2018-10-18T12:37:54.891Z,14.64
2018-10-18T12:40:23.426Z,14.70
2018-10-18T12:42:52.061Z,14.68
2018-10-18T12:45:20.446Z,14.65
2018-10-18T12:47:52.205Z,14.85
2018-10-18T12:50:20.525Z,14.89
2018-10-18T12:52:48.826Z,14.88
2018-10-18T12:55:17.222Z,14.98
2018-10-18T12:57:45.632Z,14.86
2018-10-18T13:00:14.135Z,14.94
2018-10-18T13:02:42.368Z,14.99
2018-10-18T13:05:11.583Z,15.08
2018-10-18T13:07:39.962Z,15.03
2018-10-18T13:10:10.324Z,14.92
2018-10-18T13:12:38.810Z,14.89
2018-10-18T13:15:08.544Z,14.88
2018-10-18T13:17:36.912Z,14.67
2018-10-18T13:20:06.241Z,14.78
2018-10-18T13:22:34.731Z,14.83
2018-10-18T13:25:03.057Z,14.91
2018-10-18T13:27:31.440Z,14.84
2018-10-18T13:29:59.826Z,14.78
2018-10-18T13:32:28.107Z,14.95
2018-10-18T13:34:56.622Z,14.90
2018-10-18T13:37:24.907Z,15.09
2018-10-18T13:39:53.261Z,15.18
2018-10-18T13:42:21.564Z,15.12
2018-10-18T13:44:49.937Z,15.23
2018-10-18T13:47:18.256Z,15.07
2018-10-18T13:49:46.574Z,15.21
2018-10-18T13:52:15.023Z,15.25
2018-10-18T13:54:43.440Z,15.32
2018-10-18T13:57:11.791Z,15.44
2018-10-18T13:59:51.360Z,15.56
2018-10-18T14:02:19.713Z,15.34
2018-10-18T14:04:54.693Z,15.49
2018-10-18T14:07:23.049Z,15.43
2018-10-18T14:09:51.557Z,15.42
2018-10-18T14:12:19.983Z,15.35
2018-10-18T14:14:48.365Z,15.14
2018-10-18T14:17:16.844Z,15.07
2018-10-18T14:19:45.085Z,15.12
2018-10-18T14:22:13.415Z,15.25
2018-10-18T14:24:41.712Z,15.26
2018-10-18T14:27:10.232Z,15.23
2018-10-18T14:29:38.708Z,15.04
2018-10-18T14:32:07.515Z,14.99
2018-10-18T14:34:36.111Z,14.99
2018-10-18T14:37:04.688Z,14.95
2018-10-18T14:39:32.999Z,14.87
2018-10-18T14:42:01.331Z,14.82
2018-10-18T14:44:29.771Z,14.68
2018-10-18T14:46:58.195Z,14.68
2018-10-18T14:49:26.606Z,14.49
2018-10-18T14:51:54.947Z,14.44
2018-10-18T14:54:23.659Z,14.57
2018-10-18T14:56:52.004Z,14.54
2018-10-18T14:59:20.594Z,14.36
2018-10-18T15:01:49.291Z,14.32
2018-10-18T15:04:17.661Z,14.23
2018-10-18T15:06:46.040Z,14.28
2018-10-18T15:09:14.445Z,14.19
2018-10-18T15:11:42.810Z,14.19
2018-10-18T15:14:11.126Z,14.07
2018-10-18T15:16:39.431Z,14.10
2018-10-18T15:19:07.739Z,14.11
2018-10-18T15:21:36.151Z,13.94
2018-10-18T15:24:04.835Z,13.94
2018-10-18T15:26:33.429Z,13.98
2018-10-18T15:29:01.600Z,13.92
2018-10-18T15:31:29.899Z,13.91
2018-10-18T15:33:58.326Z,13.70
2018-10-18T15:36:26.651Z,13.73
2018-10-18T15:38:55.161Z,13.62
2018-10-18T15:41:23.297Z,13.75
2018-10-18T15:43:52.602Z,13.71
2018-10-18T15:46:21.102Z,13.69
2018-10-18T15:48:49.408Z,13.47
2018-10-18T15:51:17.824Z,13.54
2018-10-18T15:53:46.043Z,13.44
2018-10-18T15:56:14.404Z,13.47
2018-10-18T15:58:42.690Z,13.39
2018-10-18T16:01:10.997Z,13.38
2018-10-18T16:03:39.295Z,13.35
2018-10-18T16:06:07.711Z,13.30
2018-10-18T16:08:36.298Z,13.43
2018-10-18T16:11:04.820Z,13.45
2018-10-18T16:13:33.479Z,13.50
2018-10-18T16:16:01.724Z,13.43
2018-10-18T16:18:30.036Z,13.38
2018-10-18T16:20:58.509Z,13.52
2018-10-18T16:23:26.820Z,13.54
2018-10-18T16:25:55.346Z,13.55
2018-10-18T16:28:23.613Z,13.39
2018-10-18T16:30:51.993Z,13.34
2018-10-18T16:33:20.331Z,13.31
2018-10-18T16:35:49.232Z,13.32
2018-10-18T16:38:17.929Z,13.28
2018-10-18T16:40:46.165Z,13.24
2018-10-18T16:43:14.610Z,13.14
2018-10-18T16:45:42.891Z,13.16
2018-10-18T16:48:11.600Z,13.10
2018-10-18T16:50:40.103Z,12.98
2018-10-18T16:53:08.620Z,12.93
2018-10-18T16:55:37.063Z,12.85
2018-10-18T16:58:05.509Z,12.67
2018-10-18T17:00:33.834Z,12.58
2018-10-18T17:03:02.305Z,12.51
2018-10-18T17:05:30.588Z,12.47
2018-10-18T17:07:59.169Z,12.50
2018-10-18T17:10:27.788Z,12.52
2018-10-18T17:12:56.220Z,12.43
2018-10-18T17:15:24.578Z,12.54
2018-10-18T17:17:53.059Z,12.40
2018-10-18T17:20:21.597Z,12.35
2018-10-18T17:22:50.180Z,12.43
2018-10-18T17:25:18.627Z,12.43
2018-10-18T17:27:47.116Z,12.29
2018-10-18T17:30:15.628Z,12.28
2018-10-18T17:32:44.000Z,12.17
2018-10-18T17:35:12.342Z,12.05
2018-10-18T17:37:40.623Z,11.97
2018-10-18T17:40:09.813Z,12.02
2018-10-18T17:42:38.473Z,11.88
2018-10-18T17:45:08.345Z,11.85
2018-10-18T17:47:36.772Z,11.70
2018-10-18T17:50:05.651Z,11.56
2018-10-18T17:52:34.884Z,11.55
2018-10-18T17:55:03.498Z,11.36
2018-10-18T17:57:31.895Z,11.36
2018-10-18T18:00:00.370Z,11.36
2018-10-18T18:02:28.637Z,11.44
2018-10-18T18:04:56.995Z,11.30
2018-10-18T18:07:25.454Z,11.31
2018-10-18T18:09:53.863Z,11.17
2018-10-18T18:12:22.191Z,11.27
2018-10-18T18:14:50.555Z,11.28
2018-10-18T18:17:19.052Z,11.39
2018-10-18T18:19:47.401Z,11.39
2018-10-18T18:22:15.759Z,11.48
2018-10-18T18:24:44.059Z,11.54
2018-10-18T18:27:12.371Z,11.51
2018-10-18T18:29:40.740Z,11.50
2018-10-18T18:32:09.441Z,11.32
2018-10-18T18:34:39.621Z,11.34
2018-10-18T18:37:13.067Z,11.22
2018-10-18T18:39:45.735Z,11.40
2018-10-18T18:42:15.539Z,11.52
2018-10-18T18:44:46.336Z,11.31
2018-10-18T18:47:17.863Z,11.34
2018-10-18T18:49:46.150Z,11.40
2018-10-18T18:52:14.595Z,11.28
2018-10-18T18:54:45.031Z,11.24
2018-10-18T18:57:13.463Z,11.20
2018-10-18T18:59:41.732Z,11.13
2018-10-18T19:02:10.046Z,11.19
2018-10-18T19:04:39.418Z,11.33
2018-10-18T19:07:07.735Z,11.28
2018-10-18T19:09:36.112Z,11.19
2018-10-18T19:12:04.656Z,11.11
2018-10-18T19:14:33.092Z,11.01
2018-10-18T19:17:01.602Z,10.97
2018-10-18T19:19:29.881Z,10.84
2018-10-18T19:21:58.319Z,10.91
2018-10-18T19:24:26.640Z,10.80
2018-10-18T19:26:55.167Z,10.98
2018-10-18T19:29:23.816Z,10.97
2018-10-18T19:31:52.320Z,10.97
2018-10-18T19:34:20.744Z,10.91
2018-10-18T19:36:50.493Z,10.98
2018-10-18T19:39:18.822Z,11.01
2018-10-18T19:41:47.337Z,10.99
2018-10-18T19:44:15.692Z,11.05
2018-10-18T19:46:44.079Z,11.02
2018-10-18T19:49:12.564Z,11.17
2018-10-18T19:51:40.859Z,11.12
2018-10-18T19:54:09.152Z,11.12
2018-10-18T19:56:37.525Z,11.09
2018-10-18T19:59:06.303Z,11.05
2018-10-18T20:01:34.690Z,11.14
2018-10-18T20:04:03.031Z,11.15
2018-10-18T20:06:32.203Z,11.18
2018-10-18T20:09:00.525Z,11.14
2018-10-18T20:11:28.855Z,11.13
2018-10-18T20:13:57.287Z,11.23
2018-10-18T20:16:25.640Z,11.15
2018-10-18T20:18:53.992Z,11.11
2018-10-18T20:21:22.415Z,11.09
2018-10-18T20:23:50.719Z,11.07
2018-10-18T20:26:19.316Z,10.96
2018-10-18T20:28:47.406Z,11.03
2018-10-18T20:31:15.683Z,10.93
2018-10-18T20:33:44.286Z,10.89
2018-10-18T20:36:21.915Z,10.88
2018-10-18T20:38:50.211Z,10.87
2018-10-18T20:41:18.733Z,10.79
2018-10-18T20:43:47.147Z,10.82
2018-10-18T20:46:15.916Z,10.84
2018-10-18T20:48:44.258Z,10.77
2018-10-18T20:51:12.675Z,10.78
2018-10-18T20:53:40.977Z,10.75
2018-10-18T20:56:09.317Z,10.74
2018-10-18T20:58:37.764Z,10.75
2018-10-18T21:01:06.914Z,10.72
2018-10-18T21:03:35.853Z,10.63
2018-10-18T21:06:04.636Z,10.64
2018-10-18T21:08:32.859Z,10.75
2018-10-18T21:11:01.162Z,10.66
2018-10-18T21:13:29.508Z,10.65
2018-10-18T21:15:57.829Z,10.57
2018-10-18T21:18:26.137Z,10.52
2018-10-18T21:20:54.493Z,10.52
2018-10-18T21:23:22.913Z,10.30
2018-10-18T21:25:51.322Z,10.26
2018-10-18T21:28:19.698Z,10.22
2018-10-18T21:30:48.072Z,10.27
2018-10-18T21:33:16.389Z,10.25
2018-10-18T21:35:44.837Z,10.00
2018-10-18T21:38:13.171Z,10.09
2018-10-18T21:40:41.451Z,10.10
2018-10-18T21:43:09.752Z,10.04
2018-10-18T21:45:38.039Z,9.83
2018-10-18T21:48:06.455Z,9.70
2018-10-18T21:50:34.756Z,9.67
2018-10-18T21:53:03.122Z,9.73
2018-10-18T21:55:31.424Z,9.89
2018-10-18T21:57:59.845Z,9.75
2018-10-18T22:00:29.256Z,9.78
2018-10-18T22:02:57.570Z,9.49
2018-10-18T22:05:25.916Z,9.64
2018-10-18T22:07:54.322Z,9.39
2018-10-18T22:10:22.620Z,9.36
2018-10-18T22:12:50.961Z,9.35
2018-10-18T22:15:19.274Z,9.22
2018-10-18T22:17:47.589Z,9.23
2018-10-18T22:20:15.970Z,9.14
2018-10-18T22:22:44.251Z,8.99
2018-10-18T22:25:12.522Z,9.16
2018-10-18T22:27:40.850Z,9.08
2018-10-18T22:30:09.340Z,9.17
2018-10-18T22:32:37.724Z,9.08
2018-10-18T22:35:06.402Z,9.15
2018-10-18T22:37:34.691Z,9.18
2018-10-18T22:40:03.049Z,9.11
2018-10-18T22:42:31.418Z,8.96
2018-10-18T22:44:59.710Z,8.94
2018-10-18T22:47:28.012Z,9.18
2018-10-18T22:49:56.384Z,9.20
2018-10-18T22:52:24.719Z,9.22
2018-10-18T22:54:53.016Z,9.14
2018-10-18T22:57:21.351Z,9.24
2018-10-18T22:59:49.648Z,9.25
2018-10-18T23:02:17.932Z,9.09
2018-10-18T23:04:46.360Z,9.12
2018-10-18T23:07:14.704Z,8.99
2018-10-18T23:09:43.176Z,8.97
2018-10-18T23:12:11.508Z,8.87
2018-10-18T23:14:39.791Z,8.80
2018-10-18T23:17:08.146Z,8.82
2018-10-18T23:19:36.403Z,8.88
2018-10-18T23:22:06.737Z,8.80
2018-10-18T23:24:36.827Z,8.67
2018-10-18T23:27:05.510Z,8.56
2018-10-18T23:29:33.771Z,8.68
2018-10-18T23:32:02.090Z,8.49
2018-10-18T23:34:30.509Z,8.70
2018-10-18T23:36:59.126Z,8.67
2018-10-18T23:39:27.442Z,8.32
2018-10-18T23:41:55.765Z,8.63
2018-10-18T23:44:24.071Z,8.29
2018-10-18T23:46:52.450Z,8.45
2018-10-18T23:49:20.682Z,8.20
2018-10-18T23:51:49.051Z,8.34
2018-10-18T23:54:17.302Z,8.20
2018-10-18T23:56:45.596Z,8.19
2018-10-18T23:59:13.939Z,7.88
